Flight Track Log - Related Links

Times and Time Zones

All times are in EDT time to prevent confusion due to time zone crossing. See the SWA662 flight status page for this flight to view local times or setup timezone preferences in your user account.


Time Position Orientation Groundspeed Altitude Reporting Facility
EDT Latitude Longitude Course Direction KTS MPH feet Rate Location/Type
Tue 11:31:32 PM 33.9500 -118.4833 242° Southwest 201 231 2,200  Level Southern California TRACON
Tue 11:31:57 PM 33.9381 -118.5106 242° Southwest 216 249 3,200 2,690 Climbing Los Angeles Center
Tue 11:32:59 PM 33.9164 -118.5825 250° West 240 276 6,100 2,903 Climbing Los Angeles Center
Tue 11:34:01 PM 33.8686 -118.5353 141° Southeast 265 305 9,200 2,390 Climbing Los Angeles Center
Tue 11:35:02 PM 33.9189 -118.4547 53° Northeast 312 359 11,000 1,707 Climbing Los Angeles Center
Tue 11:36:04 PM 33.9717 -118.3669 54° Northeast 354 407 12,700 2,032 Climbing Los Angeles Center
Tue 11:37:06 PM 34.0353 -118.2525 56° Northeast 400 460 15,200 2,585 Climbing Los Angeles Center
Tue 11:38:07 PM 34.1025 -118.1347 55° Northeast 421 484 18,000 2,634 Climbing Los Angeles Center
Tue 11:39:09 PM 34.1853 -117.9886 56° Northeast 437 503 20,600 2,226 Climbing Los Angeles Center
Tue 11:40:11 PM 34.2581 -117.8594 56° Northeast 459 528 22,600 1,951 Climbing Los Angeles Center
Tue 11:41:12 PM 34.3325 -117.7250 56° Northeast 476 548 24,600 2,000 Climbing Los Angeles Center
Tue 11:42:14 PM 34.4136 -117.5792 56° Northeast 490 564 26,700 1,694 Climbing Los Angeles Center
Tue 11:43:16 PM 34.4903 -117.4400 56° Northeast 498 573 28,100 1,415 Climbing Los Angeles Center
Tue 11:44:17 PM 34.5697 -117.2956 56° Northeast 515 593 29,600 1,610 Climbing Los Angeles Center
Tue 11:45:19 PM 34.6486 -117.1514 56° Northeast 517 595 31,400 1,597 Climbing Los Angeles Center
Tue 11:46:21 PM 34.7269 -117.0064 57° Northeast 517 595 32,900 1,463 Climbing Los Angeles Center
Tue 11:47:22 PM 34.8064 -116.8606 56° Northeast 519 597 34,400 1,610 Climbing Los Angeles Center
Tue 11:48:24 PM 34.8994 -116.6869 57° Northeast 515 593 36,200 1,366 Climbing Los Angeles Center
Tue 11:49:25 PM 34.9672 -116.5703 55° Northeast 514 592 37,200 1,122 Climbing Los Angeles Center
Tue 11:50:27 PM 35.0806 -116.4264 46° Northeast 506 582 38,500 871 Climbing Los Angeles Center
Tue 11:51:29 PM 35.1772 -116.3067 45° Northeast 499 574 39,000 242 Climbing Los Angeles Center
Tue 11:52:31 PM 35.2742 -116.1858 45° Northeast 497 572 39,000  Level Los Angeles Center
Tue 11:53:32 PM 35.3681 -116.0642 47° Northeast 495 570 39,000  Level Los Angeles Center
Tue 11:54:34 PM 35.4528 -115.8897 59° Northeast 498 573 39,000  Level Los Angeles Center
Tue 11:55:35 PM 35.5156 -115.7428 62° Northeast 496 571 39,000  Level Los Angeles Center
Tue 11:56:37 PM 35.5772 -115.5917 63° Northeast 496 571 39,000  Level Los Angeles Center
Tue 11:57:39 PM 35.6403 -115.4414 63° Northeast 496 571 39,000  Level Los Angeles Center
Tue 11:58:40 PM 35.7008 -115.2883 64° Northeast 500 575 39,000  Level Los Angeles Center
Tue 11:59:42 PM 35.7733 -115.1072 64° Northeast 496 571 39,000  Level Los Angeles Center
Wed 12:00:43 AM 35.8350 -114.9539 64° Northeast 501 577 39,000  Level Los Angeles Center
Wed 12:01:57 AM 35.8969 -114.7994 64° Northeast 505 581 39,000  Level Los Angeles Center
Wed 12:02:59 AM 35.9697 -114.6142 64° Northeast 503 579 39,000  Level Los Angeles Center
Wed 12:04:00 AM 36.0306 -114.4608 64° Northeast 502 578 39,000  Level Los Angeles Center
Wed 12:05:02 AM 36.0906 -114.3056 64° Northeast 503 579 39,000  Level Los Angeles Center
Wed 12:06:03 AM 36.1519 -114.1506 64° Northeast 503 579 39,000  Level Los Angeles Center
Wed 12:07:05 AM 36.2242 -113.9644 64° Northeast 502 578 39,000  Level Los Angeles Center
Wed 12:08:06 AM 36.2839 -113.8103 64° Northeast 500 575 39,000  Level Los Angeles Center
Wed 12:09:08 AM 36.3431 -113.6539 65° Northeast 501 577 39,000  Level Los Angeles Center
Wed 12:10:09 AM 36.4036 -113.4983 64° Northeast 501 577 39,000  Level Los Angeles Center
Wed 12:11:11 AM 36.4619 -113.3422 65° Northeast 500 575 39,000  Level Los Angeles Center
Wed 12:12:12 AM 36.5233 -113.1828 64° Northeast 502 578 39,000  Level Los Angeles Center
Wed 12:13:14 AM 36.5825 -113.0272 65° Northeast 502 578 39,000  Level Los Angeles Center
Wed 12:14:15 AM 36.6417 -112.8697 65° Northeast 504 580 39,000  Level Los Angeles Center
Wed 12:15:17 AM 36.7122 -112.6806 65° Northeast 505 581 39,000  Level Los Angeles Center
Wed 12:16:18 AM 36.7708 -112.5222 65° Northeast 506 582 39,000  Level Los Angeles Center
Wed 12:17:20 AM 36.8292 -112.3653 65° Northeast 504 580 39,000  Level Los Angeles Center
Wed 12:18:21 AM 36.8878 -112.2069 65° Northeast 505 581 39,000  Level Los Angeles Center
Wed 12:19:23 AM 36.9456 -112.0492 65° Northeast 505 581 39,000  Level Los Angeles Center
Wed 12:20:24 AM 37.0022 -111.8919 66° East 501 577 39,000  Level Los Angeles Center
Wed 12:21:25 AM 37.0492 -111.7644 65° Northeast 504 580 39,000  Level Los Angeles Center
Wed 12:22:27 AM 37.1297 -111.5422 65° Northeast 504 580 39,000  Level Los Angeles Center
Wed 12:22:51 AM 37.1517 -111.4783 67° East 501 577 39,000  Level Denver Center
Wed 12:23:52 AM 37.2078 -111.3192 66° East 502 578 39,000  Level Denver Center
Wed 12:24:53 AM 37.2650 -111.1592 66° East 504 580 39,000  Level Denver Center
Wed 12:25:54 AM 37.3208 -110.9969 67° East 507 583 39,000  Level Denver Center
Wed 12:26:55 AM 37.3786 -110.8361 66° East 508 585 39,000  Level Denver Center
Wed 12:27:56 AM 37.4342 -110.6747 67° East 507 583 39,000  Level Denver Center
Wed 12:28:58 AM 37.4931 -110.5067 66° East 504 580 39,000  Level Denver Center
Wed 12:29:59 AM 37.5458 -110.3519 67° East 503 579 39,000  Level Denver Center
Wed 12:31:00 AM 37.6081 -110.1719 66° East 500 575 39,000  Level Denver Center
Wed 12:32:01 AM 37.6603 -110.0172 67° East 501 577 39,000  Level Denver Center
Wed 12:33:02 AM 37.7131 -109.8631 67° East 500 575 39,000  Level Denver Center
Wed 12:34:03 AM 37.7742 -109.6833 67° East 499 574 39,000  Level Denver Center
Wed 12:35:04 AM 37.8256 -109.5289 67° East 497 572 39,000  Level Denver Center
Wed 12:36:05 AM 37.8769 -109.3750 67° East 497 572 39,000  Level Denver Center
Wed 12:37:06 AM 37.9372 -109.1939 67° East 499 574 39,000  Level Denver Center
Wed 12:38:07 AM 37.9983 -109.0447 62° Northeast 497 572 39,000  Level Denver Center
Wed 12:39:08 AM 38.0706 -108.8697 62° Northeast 498 573 39,000  Level Denver Center
Wed 12:40:10 AM 38.1317 -108.7194 63° Northeast 501 577 39,000  Level Denver Center
Wed 12:41:11 AM 38.1925 -108.5711 62° Northeast 498 573 39,000  Level Denver Center
Wed 12:42:12 AM 38.2644 -108.3967 62° Northeast 499 574 39,000  Level Denver Center
Wed 12:43:13 AM 38.3247 -108.2464 63° Northeast 499 574 39,000  Level Denver Center
Wed 12:44:14 AM 38.3869 -108.0950 62° Northeast 504 580 39,000  Level Denver Center
Wed 12:45:15 AM 38.4583 -107.9175 63° Northeast 506 582 39,000  Level Denver Center
Wed 12:46:16 AM 38.5192 -107.7639 63° Northeast 508 585 39,000  Level Denver Center
Wed 12:47:17 AM 38.5897 -107.5861 63° Northeast 505 581 39,000  Level Denver Center
Wed 12:48:18 AM 38.6500 -107.4339 63° Northeast 504 580 39,000  Level Denver Center
Wed 12:49:19 AM 38.7094 -107.2825 63° Northeast 499 574 39,000 -347 Level Denver Center
Wed 12:50:19 AM 38.7644 -107.1408 63° Northeast 498 573 38,300 -1,567 Descending Denver Center
Wed 12:51:33 AM 38.8506 -106.9192 63° Northeast 500 575 35,500 -2,194 Descending Denver Center
Wed 12:52:33 AM 38.9186 -106.7453 63° Northeast 513 590 33,400 -2,033 Descending Denver Center
Wed 12:53:34 AM 38.9792 -106.5875 64° Northeast 514 592 31,400 -1,918 Descending Denver Center
Wed 12:54:35 AM 39.0394 -106.4294 64° Northeast 515 593 29,500 -2,016 Descending Denver Center
Wed 12:55:36 AM 39.1092 -106.2475 64° Northeast 509 586 27,300 -1,574 Descending Denver Center
Wed 12:56:37 AM 39.1586 -106.1133 65° Northeast 490 564 26,300 -1,388 Descending Denver Center
Wed 12:57:37 AM 39.2131 -105.9697 64° Northeast 456 525 24,500 -1,934 Descending Denver Center
Wed 12:58:38 AM 39.2661 -105.8272 64° Northeast 444 511 22,400 -2,066 Descending Denver Center
Wed 12:59:39 AM 39.3172 -105.6908 64° Northeast 429 494 20,300 -1,967 Descending Denver Center
Wed 01:00:40 AM 39.3758 -105.5308 65° Northeast 415 478 18,400 -1,328 Descending Denver Center
Wed 01:01:41 AM 39.3989 -105.3986 77° East 417 480 17,600 -893 Descending Denver Center
Wed 01:02:41 AM 39.4053 -105.2592 87° East 366 421 16,600 -1,438 Descending Denver Center
Wed 01:03:42 AM 39.4117 -105.1347 86° East 349 402 14,700 -1,672 Descending Denver Center
Wed 01:04:43 AM 39.4164 -105.0092 87° East 350 403 13,200 -992 Descending Denver Center
Wed 01:05:43 AM 39.4244 -104.8864 85° East 343 395 12,700 -893 Descending Denver Center
Wed 01:06:44 AM 39.4578 -104.7783 68° East 333 383 11,400 -744 Descending Denver Center
Wed 01:07:44 AM 39.5047 -104.6983 53° Northeast 277 319 11,200 -496 Descending Denver Center
Wed 01:08:45 AM 39.5444 -104.6306 53° Northeast 238 274 10,400 -885 Descending Denver Center
Wed 01:09:46 AM 39.5875 -104.6044 25° Northeast 200 230 9,400 -694 Descending Denver Center
Wed 01:10:46 AM 39.6372 -104.6361 334° Northwest 182 209 9,000 -694 Descending Denver Center
Wed 01:11:47 AM 39.6847 -104.6433 353° North 173 199 8,000 -793 Descending Denver Center
Wed 01:12:47 AM 39.7289 -104.6428 North 160 184 7,400 -744 Descending Denver Center
Wed 01:13:48 AM 39.7736 -104.6425 360° North 160 184 6,500 -843 Descending Denver Center
Wed 01:14:48 AM 39.8161 -104.6419 North 154 177 5,700 -595 Descending Denver Center
Wed 01:15:49 AM 39.8525 -104.6417 360° North 136 157 5,300 -393 Descending Denver Center
Wed 01:17:00 AM 39.8500 -104.6667 North  Level FlightAware Approximate
Wed 01:24:00 AM 39.8617 -104.6732 North  Level Estimated
Wed 01:25:00 AM 39.8617 -104.6732 North  Level Estimated
Wed 01:26:00 AM 39.8617 -104.6732 North  Level Estimated

Login

Don't have an account? Register now (free) for customized features, flight alerts, and more!